Portada
METAR-TAF:

METAR-TAF

Aeroports :

Kastamonu, Turquia

latitud: 41-19-01N, longitud: 33-47-46E, altitud: 1073 m

METAR: manca

Hora: 02:39 (23:39 UTC)

Pronòstic

L'informe es va fer fa 9 hores i 59 minuts, a les 13:40 UTC
Pronòstic vàlid del 12 a les 15 UTC al 12 a les 24 UTC
Vent 9 kt del Nord-Oest
Visibilitat 10 km o més
Núvols disperses a una alçada de 3200 ft

TAF: LTAL 121340Z 1215/1224 32009KT 9999 SCT032

Observacions i pronòstics meteorològics de més de 4000 aeroports (METAR i TAF).

Les estacions disponibles són els punts grocs i vermells al mapa.

Posi el ratolí al punt desitjat per veure el nom de l'estació.

Feu clic per veure les observacions i els pronòstics meteorològics.

Per canviar el mapa: feu clic els botons verds amb una creu de color negre per apropar; al botó verd amb un guió per allunyar la imatge; o en les fletxes verdes per a mapes adjacents.


METAR-TAF: